Time;durP1;ratioP1;P1;durP2;ratioP2;P2;SDS_P1;SDS_P2;PMS_P1;PMS_P2;Temp;Humidity;BMP_temperature;BMP_pressure;BME280_temperature;BME280_humidity;BME280_pressure;Samples;Min_cycle;Max_cycle;Signal;HPM_P1;HPM_P2
2023/08/03 00:01:55;;;;;;;;;;;;;;;15.31;100.00;98991.22;5066568;27;19924;-56
2023/08/03 00:04:20;;;;;;;;;;;;;;;15.33;100.00;98986.84;5063964;27;19916;-55
2023/08/03 00:06:46;;;;;;;;;;;;;;;15.33;100.00;98999.78;5062232;27;19922;-56
2023/08/03 00:09:11;;;;;;;;;;;;;;;15.39;100.00;99003.09;5059816;27;20362;-57
2023/08/03 00:11:36;;;;;;;;;;;;;;;15.40;100.00;98994.44;5062798;28;19916;-56
2023/08/03 00:14:01;;;;;;;;;;;;;;;15.44;100.00;98990.06;5062452;27;19935;-56
2023/08/03 00:16:27;;;;;;;;;;;;;;;15.52;100.00;99006.28;5060363;28;19925;-57
2023/08/03 00:18:52;;;;;;;;;;;;;;;15.44;100.00;99001.28;5058643;28;19939;-57
2023/08/03 00:21:17;;;;;;;;;;;;;;;15.49;100.00;99002.03;5063154;28;20825;-56
2023/08/03 00:23:43;;;;;;;;;;;;;;;15.50;100.00;99000.28;5028063;28;20841;-57
2023/08/03 00:26:08;;;;;;;;;;;;;;;15.47;100.00;99014.19;5060976;27;19928;-57
2023/08/03 00:28:33;;;;;;;;;;;;;;;15.47;100.00;99002.94;5064263;28;20015;-57
2023/08/03 00:30:58;;;;;;;;;;;;;;;15.47;100.00;99005.53;5065534;27;20379;-57
2023/08/03 00:33:24;;;;;;;;;;;;;;;15.48;100.00;99012.44;5047657;28;19928;-57
2023/08/03 00:35:49;;;;;;;;;;;;;;;15.53;100.00;99015.75;5065524;28;19939;-58
2023/08/03 00:38:14;;;;;;;;;;;;;;;15.53;100.00;99032.19;5067200;28;19928;-57
2023/08/03 00:40:39;;;;;;;;;;;;;;;15.54;100.00;99036.47;5061863;28;19928;-56
2023/08/03 00:43:05;;;;;;;;;;;;;;;15.55;100.00;99038.16;5068166;27;19948;-56
2023/08/03 00:45:30;;;;;;;;;;;;;;;15.57;100.00;99044.16;5065371;28;19959;-55
2023/08/03 00:47:55;;;;;;;;;;;;;;;15.61;100.00;99055.31;5066462;27;19920;-56
2023/08/03 00:50:21;;;;;;;;;;;;;;;15.64;100.00;99060.44;5064946;28;19935;-56
2023/08/03 00:52:47;;;;;;;;;;;;;;;15.67;100.00;99067.31;5062654;27;20007;-56
2023/08/03 00:55:12;;;;;;;;;;;;;;;15.68;100.00;99063.84;5063796;28;20298;-56
2023/08/03 00:57:38;;;;;;;;;;;;;;;15.67;100.00;99068.19;5047104;28;19923;-56
2023/08/03 01:00:03;;;;;;;;;;;;;;;15.66;100.00;99076.84;5064969;28;19916;-55
2023/08/03 01:02:28;;;;;;;;;;;;;;;15.67;100.00;99075.94;5060822;28;19930;-56
2023/08/03 01:04:54;;;;;;;;;;;;;;;15.70;100.00;99081.06;5047668;28;20331;-56
2023/08/03 01:07:21;;;;;;;;;;;;;;;15.73;100.00;99082.75;5061158;28;20160;-57
2023/08/03 01:09:46;;;;;;;;;;;;;;;15.78;100.00;99088.69;5046411;28;19927;-56
2023/08/03 01:12:11;;;;;;;;;;;;;;;15.78;100.00;99094.72;5064601;28;20589;-56
2023/08/03 01:14:37;;;;;;;;;;;;;;;15.77;100.00;99103.38;5066803;27;19920;-56
2023/08/03 01:17:02;;;;;;;;;;;;;;;15.75;100.00;99101.69;5062529;28;19925;-56
2023/08/03 01:19:27;;;;;;;;;;;;;;;15.84;100.00;99111.88;5063534;28;19925;-56
2023/08/03 01:21:55;;;;;;;;;;;;;;;15.79;100.00;99103.34;5059638;28;20414;-56
2023/08/03 01:24:20;;;;;;;;;;;;;;;15.78;100.00;99110.28;5061391;28;19989;-55
2023/08/03 01:26:45;;;;;;;;;;;;;;;15.78;100.00;99114.59;5061774;27;20374;-55
2023/08/03 01:29:11;;;;;;;;;;;;;;;15.81;100.00;99125.75;5062344;28;19916;-56
2023/08/03 01:31:37;;;;;;;;;;;;;;;15.78;100.00;99137.94;5061088;28;20064;-56
2023/08/03 01:34:02;;;;;;;;;;;;;;;15.76;100.00;99134.50;5058977;28;20403;-56
2023/08/03 01:36:27;;;;;;;;;;;;;;;15.72;100.00;99132.88;5063248;28;19933;-56
2023/08/03 01:38:54;;;;;;;;;;;;;;;15.66;100.00;99136.44;5045681;28;20290;-56
2023/08/03 01:41:20;;;;;;;;;;;;;;;15.68;100.00;99149.34;5063807;27;19952;-57
2023/08/03 01:43:46;;;;;;;;;;;;;;;15.67;100.00;99139.88;5062135;28;20012;-56
2023/08/03 01:46:11;;;;;;;;;;;;;;;15.69;100.00;99140.69;5061957;28;19964;-56
2023/08/03 01:48:36;;;;;;;;;;;;;;;15.68;100.00;99144.16;5062999;27;19928;-56
2023/08/03 01:51:01;;;;;;;;;;;;;;;15.68;100.00;99139.84;5064293;28;19921;-55
2023/08/03 01:53:27;;;;;;;;;;;;;;;15.69;100.00;99135.50;5064986;28;19928;-57
2023/08/03 01:55:52;;;;;;;;;;;;;;;15.69;100.00;99135.50;5064026;28;19928;-57
2023/08/03 01:58:18;;;;;;;;;;;;;;;15.73;100.00;99139.75;5060991;28;19920;-57
2023/08/03 02:00:43;;;;;;;;;;;;;;;15.71;100.00;99142.38;5064231;27;19932;-56
2023/08/03 02:03:08;;;;;;;;;;;;;;;15.72;100.00;99149.25;5059627;28;20023;-57
2023/08/03 02:05:34;;;;;;;;;;;;;;;15.74;100.00;99144.03;5063371;27;20390;-56
2023/08/03 02:07:59;;;;;;;;;;;;;;;15.74;100.00;99142.31;5065688;28;20333;-52
2023/08/03 02:10:24;;;;;;;;;;;;;;;15.73;100.00;99143.19;5065348;27;19927;-51
2023/08/03 02:12:49;;;;;;;;;;;;;;;15.75;100.00;99148.34;5066264;28;19959;-49
2023/08/03 02:15:15;;;;;;;;;;;;;;;15.74;100.00;99150.06;5062665;27;19932;-47
2023/08/03 02:17:41;;;;;;;;;;;;;;;15.71;100.00;99139.78;5064664;28;19925;-48
2023/08/03 02:20:07;;;;;;;;;;;;;;;15.72;100.00;99145.81;5065452;28;19924;-47
2023/08/03 02:22:32;;;;;;;;;;;;;;;15.69;100.00;99145.88;5063950;27;19967;-50
2023/08/03 02:24:57;;;;;;;;;;;;;;;15.77;100.00;99146.56;5060337;27;19920;-51
2023/08/03 02:27:22;;;;;;;;;;;;;;;15.79;100.00;99143.06;5060359;28;20358;-50
2023/08/03 02:29:48;;;;;;;;;;;;;;;15.72;100.00;99138.06;5061655;28;19920;-50
2023/08/03 02:32:13;;;;;;;;;;;;;;;15.73;100.00;99138.00;5060474;28;19929;-53
2023/08/03 02:34:38;;;;;;;;;;;;;;;15.71;100.00;99136.31;5061733;28;19928;-54
2023/08/03 02:37:04;;;;;;;;;;;;;;;15.71;100.00;99138.91;5063678;28;19924;-51
2023/08/03 02:39:29;;;;;;;;;;;;;;;15.70;100.00;99132.88;5048632;28;19924;-51
2023/08/03 02:41:54;;;;;;;;;;;;;;;15.71;100.00;99128.53;5061231;28;19943;-51
2023/08/03 02:44:19;;;;;;;;;;;;;;;15.76;100.00;99121.53;5059967;27;19929;-53
2023/08/03 02:46:45;;;;;;;;;;;;;;;15.73;100.00;99113.84;5056798;28;20012;-56
2023/08/03 02:49:10;;;;;;;;;;;;;;;15.73;100.00;99131.97;5059274;27;19992;-57
2023/08/03 02:51:35;;;;;;;;;;;;;;;15.72;100.00;99132.88;5062188;28;20290;-57
2023/08/03 02:54:00;;;;;;;;;;;;;;;15.73;100.00;99137.16;5046195;28;19915;-57
2023/08/03 02:56:26;;;;;;;;;;;;;;;15.67;100.00;99126.91;5061470;27;19928;-49
2023/08/03 02:58:51;;;;;;;;;;;;;;;15.78;100.00;99123.22;5062317;28;20409;-51
2023/08/03 03:01:18;;;;;;;;;;;;;;;15.70;100.00;99132.03;5062202;27;20338;-50
2023/08/03 03:03:43;;;;;;;;;;;;;;;15.59;100.00;99129.59;5066857;28;19921;-51
2023/08/03 03:06:09;;;;;;;;;;;;;;;15.69;100.00;99130.31;5046576;28;19924;-50
2023/08/03 03:08:34;;;;;;;;;;;;;;;15.61;100.00;99143.41;5064092;27;19924;-53
2023/08/03 03:10:59;;;;;;;;;;;;;;;15.63;100.00;99135.63;5064200;28;19933;-54
2023/08/03 03:13:25;;;;;;;;;;;;;;;15.65;100.00;99149.41;5065227;28;19916;-54
2023/08/03 03:15:50;;;;;;;;;;;;;;;15.60;100.00;99151.22;5063025;28;19969;-52
2023/08/03 03:18:15;;;;;;;;;;;;;;;15.66;100.00;99159.75;5063484;28;19920;-52
2023/08/03 03:20:40;;;;;;;;;;;;;;;15.59;100.00;99165.03;5062704;28;19920;-55
2023/08/03 03:23:06;;;;;;;;;;;;;;;15.57;100.00;99162.47;5061659;28;20026;-55
2023/08/03 03:25:31;;;;;;;;;;;;;;;15.72;100.00;99169.16;5062987;28;19974;-54
2023/08/03 03:28:03;;;;;;;;;;;;;;;15.56;100.00;99172.00;5061765;28;20378;-54
2023/08/03 03:30:29;;;;;;;;;;;;;;;15.55;100.00;99177.22;5057673;28;19916;-53
2023/08/03 03:32:54;;;;;;;;;;;;;;;15.67;100.00;99173.56;5058308;28;19979;-53
2023/08/03 03:35:19;;;;;;;;;;;;;;;15.57;100.00;99194.41;5057331;28;20256;-49
2023/08/03 03:37:44;;;;;;;;;;;;;;;15.52;100.00;99195.38;5059482;27;20302;-51
2023/08/03 03:40:10;;;;;;;;;;;;;;;15.50;100.00;99203.19;5062260;27;19952;-49
2023/08/03 03:42:35;;;;;;;;;;;;;;;15.49;100.00;99209.25;5060671;28;19925;-49
2023/08/03 03:45:01;;;;;;;;;;;;;;;15.45;100.00;99217.97;5056502;28;19967;-51
2023/08/03 03:47:26;;;;;;;;;;;;;;;15.45;100.00;99220.53;5059017;27;19920;-52
2023/08/03 03:49:51;;;;;;;;;;;;;;;15.43;100.00;99224.91;5053837;28;19950;-54
2023/08/03 03:52:17;;;;;;;;;;;;;;;15.43;100.00;99224.06;5052375;28;19951;-55
2023/08/03 03:54:42;;;;;;;;;;;;;;;15.43;100.00;99218.88;5051669;28;19944;-54
2023/08/03 03:57:07;;;;;;;;;;;;;;;15.42;100.00;99230.97;5052482;28;20019;-51
2023/08/03 03:59:32;;;;;;;;;;;;;;;15.41;100.00;99233.56;5052762;28;20445;-54
2023/08/03 04:01:57;;;;;;;;;;;;;;;15.42;100.00;99241.34;5051517;27;19921;-55
2023/08/03 04:04:23;;;;;;;;;;;;;;;15.38;100.00;99241.41;5051629;28;19960;-53
2023/08/03 04:06:48;;;;;;;;;;;;;;;15.39;100.00;99245.69;5053912;28;19948;-52
2023/08/03 04:09:13;;;;;;;;;;;;;;;15.36;100.00;99245.78;5050305;28;19924;-52
2023/08/03 04:11:38;;;;;;;;;;;;;;;15.38;100.00;99255.22;5053291;28;19974;-51
2023/08/03 04:14:04;;;;;;;;;;;;;;;15.39;100.00;99256.91;5052752;27;19974;-52
2023/08/03 04:16:29;;;;;;;;;;;;;;;15.47;100.00;99259.38;5051956;28;20040;-52
2023/08/03 04:18:54;;;;;;;;;;;;;;;15.40;100.00;99263.81;5052741;28;19920;-49
2023/08/03 04:21:20;;;;;;;;;;;;;;;15.39;100.00;99266.44;5054882;28;20524;-49
2023/08/03 04:23:45;;;;;;;;;;;;;;;15.43;100.00;99270.69;5050402;28;19925;-51
2023/08/03 04:26:10;;;;;;;;;;;;;;;15.39;100.00;99272.47;5034041;28;19925;-51
2023/08/03 04:28:35;;;;;;;;;;;;;;;15.45;100.00;99281.84;5040337;28;19928;-53
2023/08/03 04:31:01;;;;;;;;;;;;;;;15.50;100.00;99286.09;5052053;28;19924;-53
2023/08/03 04:33:26;;;;;;;;;;;;;;;15.47;100.00;99288.75;5050200;27;19928;-52
2023/08/03 04:35:51;;;;;;;;;;;;;;;15.47;100.00;99287.84;5050117;28;19925;-53
2023/08/03 04:38:16;;;;;;;;;;;;;;;15.48;100.00;99290.44;5049505;27;19937;-55
2023/08/03 04:40:42;;;;;;;;;;;;;;;15.48;100.00;99290.44;5049841;28;19920;-55
2023/08/03 04:43:07;;;;;;;;;;;;;;;15.50;100.00;99301.63;5053490;28;20011;-54
2023/08/03 04:45:32;;;;;;;;;;;;;;;15.48;100.00;99307.72;5049976;28;19999;-54
2023/08/03 04:47:57;;;;;;;;;;;;;;;15.54;100.00;99310.22;5050790;28;19920;-49
2023/08/03 04:50:23;;;;;;;;;;;;;;;15.52;100.00;99306.78;5057298;27;19921;-54
2023/08/03 04:52:48;;;;;;;;;;;;;;;15.54;100.00;99311.06;5058720;27;19929;-54
2023/08/03 04:55:13;;;;;;;;;;;;;;;15.56;100.00;99313.63;5059654;28;20488;-55
2023/08/03 04:57:38;;;;;;;;;;;;;;;15.50;100.00;99312.00;5057890;27;20310;-54
2023/08/03 05:00:04;;;;;;;;;;;;;;;15.53;100.00;99316.25;5056198;28;19960;-55
2023/08/03 05:02:29;;;;;;;;;;;;;;;15.51;100.00;99321.47;5058655;28;19921;-55
2023/08/03 05:04:54;;;;;;;;;;;;;;;15.51;100.00;99321.47;5059772;28;19923;-55
2023/08/03 05:07:20;;;;;;;;;;;;;;;15.54;100.00;99331.78;5061776;28;20363;-54
2023/08/03 05:09:45;;;;;;;;;;;;;;;15.49;100.00;99338.78;5066741;28;19921;-55
2023/08/03 05:12:10;;;;;;;;;;;;;;;15.47;100.00;99337.06;5063220;28;20333;-55
2023/08/03 05:14:35;;;;;;;;;;;;;;;15.46;100.00;99338.81;5067065;27;20387;-55
2023/08/03 05:17:01;;;;;;;;;;;;;;;15.45;100.00;99338.84;5065815;28;20339;-53
2023/08/03 05:19:26;;;;;;;;;;;;;;;15.45;100.00;99352.66;5066799;28;20016;-51
2023/08/03 05:21:52;;;;;;;;;;;;;;;15.44;100.00;99358.72;5063581;28;19928;-50
2023/08/03 05:24:17;;;;;;;;;;;;;;;15.43;100.00;99361.34;5062043;28;19930;-51
2023/08/03 05:26:42;;;;;;;;;;;;;;;15.40;100.00;99366.53;5064397;27;20446;-52
2023/08/03 05:29:08;;;;;;;;;;;;;;;15.41;100.00;99382.09;5057812;28;20268;-51
2023/08/03 05:31:33;;;;;;;;;;;;;;;15.40;100.00;99377.75;5065099;27;19924;-51
2023/08/03 05:33:59;;;;;;;;;;;;;;;15.41;100.00;99376.03;5066536;27;19921;-52
2023/08/03 05:36:24;;;;;;;;;;;;;;;15.44;100.00;99391.53;5063048;28;19921;-53
2023/08/03 05:38:53;;;;;;;;;;;;;;;15.48;100.00;99388.88;5061479;27;20539;-53
2023/08/03 05:41:20;;;;;;;;;;;;;;;15.52;100.00;99398.28;5060147;28;19920;-52
2023/08/03 05:43:46;;;;;;;;;;;;;;;15.48;100.00;99391.47;5061839;28;19924;-52
2023/08/03 05:46:12;;;;;;;;;;;;;;;15.47;100.00;99392.34;5062921;28;19977;-52
2023/08/03 05:48:37;;;;;;;;;;;;;;;15.50;100.00;99405.25;5065461;27;19917;-51
2023/08/03 05:51:03;;;;;;;;;;;;;;;15.51;100.00;99406.09;5065458;27;20359;-55
2023/08/03 05:53:28;;;;;;;;;;;;;;;15.57;100.00;99411.19;5053943;28;20324;-52
2023/08/03 05:55:53;;;;;;;;;;;;;;;15.58;100.00;99412.91;5059667;27;19929;-52
2023/08/03 05:58:19;;;;;;;;;;;;;;;15.63;100.00;99431.00;5058779;28;19944;-54
2023/08/03 06:00:49;;;;;;;;;;;;;;;15.61;100.00;99422.38;5063533;28;19928;-55
2023/08/03 06:03:15;;;;;;;;;;;;;;;15.71;100.00;99434.31;5061767;28;19959;-55
2023/08/03 06:05:43;;;;;;;;;;;;;;;15.77;100.00;99429.94;5061485;28;21073;-55
2023/08/03 06:08:20;;;;;;;;;;;;;;;15.85;100.00;99434.97;5063728;28;19970;-55
2023/08/03 06:10:46;;;;;;;;;;;;;;;15.78;100.00;99441.16;5064540;28;20386;-55
2023/08/03 06:13:13;;;;;;;;;;;;;;;15.78;100.00;99438.56;5059574;28;19930;-55
2023/08/03 06:15:38;;;;;;;;;;;;;;;15.78;100.00;99441.16;5064632;27;19934;-55
2023/08/03 06:18:05;;;;;;;;;;;;;;;15.80;100.00;99440.22;5060721;28;19920;-57
2023/08/03 06:20:30;;;;;;;;;;;;;;;15.88;100.00;99453.06;5065332;28;19973;-56
2023/08/03 06:22:55;;;;;;;;;;;;;;;15.95;100.00;99446.88;5064325;28;21046;-57
2023/08/03 06:25:22;;;;;;;;;;;;;;;16.02;100.00;99458.88;5062129;28;20078;-55
2023/08/03 06:27:48;;;;;;;;;;;;;;;16.07;100.00;99454.47;5064503;27;19920;-56
2023/08/03 06:30:14;;;;;;;;;;;;;;;16.07;100.00;99458.78;5050229;27;19928;-58
2023/08/03 06:32:41;;;;;;;;;;;;;;;16.03;100.00;99457.16;5063951;28;19924;-56
2023/08/03 06:35:42;;;;;;;;;;;;;;;16.00;100.00;99465.81;5065869;28;19917;-56
2023/08/03 06:38:10;;;;;;;;;;;;;;;15.92;100.00;99467.69;5065435;28;19952;-54
2023/08/03 06:40:35;;;;;;;;;;;;;;;15.93;100.00;99481.50;5065369;28;19941;-55
2023/08/03 06:43:01;;;;;;;;;;;;;;;15.90;100.00;99476.38;5064108;28;20355;-55
2023/08/03 06:45:28;;;;;;;;;;;;;;;15.87;100.00;99479.88;5063122;28;19924;-55
2023/08/03 06:47:54;;;;;;;;;;;;;;;15.91;100.00;99485.88;5063139;28;20393;-53
2023/08/03 06:50:19;;;;;;;;;;;;;;;15.91;100.00;99493.66;5062864;27;20426;-54
2023/08/03 06:52:44;;;;;;;;;;;;;;;15.90;100.00;99513.53;5065149;27;19958;-55
2023/08/03 06:55:09;;;;;;;;;;;;;;;15.91;100.00;99502.28;5064665;27;19980;-55
2023/08/03 06:57:35;;;;;;;;;;;;;;;15.93;100.00;99507.44;5046402;28;19927;-54
2023/08/03 07:00:00;;;;;;;;;;;;;;;15.94;100.00;99511.72;5062850;28;20335;-55
2023/08/03 07:02:26;;;;;;;;;;;;;;;15.95;100.00;99509.09;5066141;28;20341;-55
2023/08/03 07:04:51;;;;;;;;;;;;;;;15.96;100.00;99508.25;5064450;28;20501;-55
2023/08/03 07:07:16;;;;;;;;;;;;;;;15.97;100.00;99524.66;5063265;28;19924;-55
2023/08/03 07:09:48;;;;;;;;;;;;;;;15.99;100.00;99521.16;5064918;28;19924;-55
2023/08/03 07:12:13;;;;;;;;;;;;;;;16.11;100.00;99525.28;5063683;28;19966;-53
2023/08/03 07:14:38;;;;;;;;;;;;;;;16.08;100.00;99533.13;5063654;27;20290;-54
2023/08/03 07:17:04;;;;;;;;;;;;;;;16.10;100.00;99539.16;5064394;28;19928;-53
2023/08/03 07:19:29;;;;;;;;;;;;;;;16.18;100.00;99541.59;5064305;28;19921;-53
2023/08/03 07:21:54;;;;;;;;;;;;;;;16.15;100.00;99554.63;5062642;27;19920;-57
2023/08/03 07:24:20;;;;;;;;;;;;;;;16.17;100.00;99545.09;5063193;28;19917;-53
2023/08/03 07:26:47;;;;;;;;;;;;;;;16.17;100.00;99552.88;5062864;28;19920;-54
2023/08/03 07:29:12;;;;;;;;;;;;;;;16.12;100.00;99546.88;5061806;28;20340;-53
2023/08/03 07:31:37;;;;;;;;;;;;;;;16.09;100.00;99546.06;5062961;27;19921;-51
2023/08/03 07:34:03;;;;;;;;;;;;;;;16.06;100.00;99563.41;5059283;27;20401;-51
2023/08/03 07:36:28;;;;;;;;;;;;;;;16.06;100.00;99558.22;5063359;28;19974;-53
2023/08/03 07:38:53;;;;;;;;;;;;;;;16.08;100.00;99572.03;5059378;27;19973;-53
2023/08/03 07:41:18;;;;;;;;;;;;;;;16.10;100.00;99565.06;5058655;28;20011;-53
2023/08/03 07:43:44;;;;;;;;;;;;;;;16.09;100.00;99560.78;5064945;27;19940;-53
2023/08/03 07:46:09;;;;;;;;;;;;;;;16.14;100.00;99565.88;5057822;28;19916;-52
2023/08/03 07:48:34;;;;;;;;;;;;;;;16.18;100.00;99577.91;5057007;28;20009;-54
2023/08/03 07:50:59;;;;;;;;;;;;;;;16.22;100.00;99574.41;5060475;28;20020;-53
2023/08/03 07:53:25;;;;;;;;;;;;;;;16.28;100.00;99587.28;5057393;28;19958;-54
2023/08/03 07:55:50;;;;;;;;;;;;;;;16.25;100.00;99597.69;5057195;27;19956;-54
2023/08/03 07:58:15;;;;;;;;;;;;;;;16.24;100.00;99595.97;5059593;28;19924;-54
2023/08/03 08:00:40;;;;;;;;;;;;;;;16.21;100.00;99603.81;5058803;28;20015;-55
2023/08/03 08:03:06;;;;;;;;;;;;;;;16.19;100.00;99606.41;5056324;27;19956;-54
2023/08/03 08:05:31;;;;;;;;;;;;;;;16.17;100.00;99604.72;5056857;28;20382;-53
2023/08/03 08:07:56;;;;;;;;;;;;;;;16.18;100.00;99609.88;5055105;27;20051;-53
2023/08/03 08:10:21;;;;;;;;;;;;;;;16.18;100.00;99617.66;5056213;28;19921;-54
2023/08/03 08:12:47;;;;;;;;;;;;;;;16.27;100.00;99617.56;5057392;27;20331;-53
2023/08/03 08:15:12;;;;;;;;;;;;;;;16.30;100.00;99621.81;5054118;27;19924;-52
2023/08/03 08:17:37;;;;;;;;;;;;;;;16.35;100.00;99636.44;5061854;27;19920;-53
2023/08/03 08:20:02;;;;;;;;;;;;;;;16.36;100.00;99651.13;5050204;28;19928;-52
2023/08/03 08:22:28;;;;;;;;;;;;;;;16.39;100.00;99645.03;5047919;28;20622;-49
2023/08/03 08:24:53;;;;;;;;;;;;;;;16.35;100.00;99640.78;5036840;28;20366;-51
2023/08/03 08:27:19;;;;;;;;;;;;;;;16.34;100.00;99655.47;5050471;27;19920;-51
2023/08/03 08:29:45;;;;;;;;;;;;;;;16.38;100.00;99671.00;5060587;28;19972;-52
2023/08/03 08:32:10;;;;;;;;;;;;;;;16.33;100.00;99664.16;5056285;27;20286;-53
2023/08/03 08:34:35;;;;;;;;;;;;;;;16.32;100.00;99669.38;5059259;28;20367;-48
2023/08/03 08:37:01;;;;;;;;;;;;;;;16.33;100.00;99677.13;5058183;27;19933;-53
2023/08/03 08:39:28;;;;;;;;;;;;;;;16.33;100.00;99681.47;5038631;28;19928;-51
2023/08/03 08:41:54;;;;;;;;;;;;;;;16.33;100.00;99697.03;5062316;27;20260;-47
2023/08/03 08:44:19;;;;;;;;;;;;;;;16.31;100.00;99691.84;5069901;27;20367;-46
2023/08/03 08:46:44;;;;;;;;;;;;;;;16.33;100.00;99697.88;5065486;27;19916;-46
2023/08/03 08:49:11;;;;;;;;;;;;;;;16.35;100.00;99708.22;5065745;28;19920;-46
2023/08/03 08:51:36;;;;;;;;;;;;;;;16.40;100.00;99711.63;5064124;28;19916;-48
2023/08/03 08:54:02;;;;;;;;;;;;;;;16.47;100.00;99715.84;5066825;28;19993;-50
2023/08/03 08:56:27;;;;;;;;;;;;;;;16.54;100.00;99720.06;5066753;28;19916;-46
2023/08/03 08:58:52;;;;;;;;;;;;;;;16.56;100.00;99717.41;5065870;28;20320;-47
2023/08/03 09:01:18;;;;;;;;;;;;;;;16.59;100.00;99720.84;5064664;28;19966;-50
2023/08/03 09:03:47;;;;;;;;;;;;;;;16.64;100.00;99725.97;5063651;28;20331;-48
2023/08/03 09:06:13;;;;;;;;;;;;;;;16.76;100.00;99731.03;5063545;28;19999;-50
2023/08/03 09:08:49;;;;;;;;;;;;;;;16.89;100.00;99732.53;5061870;28;20024;-50
2023/08/03 09:11:14;;;;;;;;;;;;;;;17.08;100.00;99748.69;5064933;27;20365;-47
2023/08/03 09:13:39;;;;;;;;;;;;;;;17.26;100.00;99755.31;5063221;27;19959;-52
2023/08/03 09:16:05;;;;;;;;;;;;;;;17.43;100.00;99765.41;5066842;28;20267;-50
2023/08/03 09:18:31;;;;;;;;;;;;;;;17.60;100.00;99765.13;5063923;28;19913;-50
2023/08/03 09:21:13;;;;;;;;;;;;;;;17.69;100.00;99777.94;5063676;28;19959;-50
2023/08/03 09:23:39;;;;;;;;;;;;;;;17.72;100.00;99782.28;5065073;28;19916;-48
2023/08/03 09:26:04;;;;;;;;;;;;;;;17.76;100.00;99802.13;5065307;27;19916;-48
2023/08/03 09:28:37;;;;;;;;;;;;;;;17.77;100.00;99790.84;5064864;28;19913;-48
2023/08/03 09:31:02;;;;;;;;;;;;;;;17.87;100.00;99789.78;5064378;28;19920;-49
2023/08/03 09:33:28;;;;;;;;;;;;;;;17.86;100.00;99803.69;5064866;28;20023;-50
2023/08/03 09:36:07;;;;;;;;;;;;;;;17.81;100.00;99808.97;5060679;28;20259;-50
2023/08/03 09:38:33;;;;;;;;;;;;;;;17.84;100.00;99815.88;5064100;27;19950;-50
2023/08/03 09:40:58;;;;;;;;;;;;;;;17.91;100.00;99820.06;5062375;27;19921;-51
2023/08/03 09:43:24;;;;;;;;;;;;;;;17.99;100.00;99812.09;5047802;28;19916;-47
2023/08/03 09:45:51;;;;;;;;;;;;;;;18.00;100.00;99827.69;5065128;28;20460;-50
2023/08/03 09:48:16;;;;;;;;;;;;;;;18.02;100.00;99831.13;5064555;28;19965;-50
2023/08/03 09:50:46;;;;;;;;;;;;;;;17.98;100.00;99837.25;5062040;28;19932;-50
2023/08/03 09:53:15;;;;;;;;;;;;;;;17.95;100.00;99852.91;5059188;27;20279;-50
2023/08/03 09:55:45;;;;;;;;;;;;;;;17.95;100.00;99847.69;5066073;28;19920;-50
2023/08/03 09:58:15;;;;;;;;;;;;;;;18.02;100.00;99854.53;5066150;27;19967;-50
2023/08/03 10:00:43;;;;;;;;;;;;;;;18.16;100.00;99854.28;5065976;28;19916;-50
2023/08/03 10:03:10;;;;;;;;;;;;;;;18.27;100.00;99859.28;5063950;28;19959;-50
2023/08/03 10:05:40;;;;;;;;;;;;;;;18.36;100.00;99869.50;5047399;28;20335;-51
2023/08/03 10:08:09;;;;;;;;;;;;;;;18.38;100.00;99867.69;5047951;28;19965;-50
2023/08/03 10:10:36;;;;;;;;;;;;;;;18.55;100.00;99893.41;5062996;28;20068;-48
2023/08/03 10:13:02;;;;;;;;;;;;;;;18.58;100.00;99880.34;5066944;28;20362;-51
2023/08/03 10:15:27;;;;;;;;;;;;;;;18.81;100.00;99882.47;5059052;28;19925;-52
2023/08/03 10:17:53;;;;;;;;;;;;;;;19.04;100.00;99895.88;5056925;28;19940;-51
2023/08/03 10:20:19;;;;;;;;;;;;;;;19.19;100.00;99886.88;5061305;28;20080;-50
2023/08/03 10:23:04;;;;;;;;;;;;;;;19.27;100.00;99885.78;5058317;27;19928;-50
2023/08/03 10:25:30;;;;;;;;;;;;;;;19.46;100.00;99891.44;5054415;28;19921;-50
2023/08/03 10:28:13;;;;;;;;;;;;;;;19.57;100.00;99896.41;5051747;27;19936;-48
2023/08/03 10:31:05;;;;;;;;;;;;;;;19.71;100.00;99896.09;5051436;28;19967;-51
2023/08/03 10:33:51;;;;;;;;;;;;;;;19.79;100.00;99902.84;5054932;28;19928;-48
2023/08/03 10:36:26;;;;;;;;;;;;;;;19.98;100.00;99902.38;5056342;28;19973;-48
2023/08/03 10:38:51;;;;;;;;;;;;;;;20.17;100.00;99908.81;5051263;28;19917;-50
2023/08/03 10:41:23;;;;;;;;;;;;;;;20.36;100.00;99917.00;5053234;27;19935;-49
2023/08/03 10:44:07;;;;;;;;;;;;;;;20.44;100.00;99916.78;5054030;28;19928;-51
2023/08/03 10:46:37;;;;;;;;;;;;;;;20.35;100.00;99918.78;5040757;28;20383;-46
2023/08/03 10:49:27;;;;;;;;;;;;;;;20.27;100.00;99923.34;5056169;28;19947;-57
2023/08/03 10:51:54;;;;;;;;;;;;;;;20.40;100.00;99923.88;5055323;27;20287;-57
2023/08/03 10:54:21;;;;;;;;;;;;;;;20.58;100.00;99930.38;5055252;28;20060;-57
2023/08/03 10:57:03;;;;;;;;;;;;;;;20.77;100.00;99926.34;5054333;28;20519;-55
2023/08/03 10:59:29;;;;;;;;;;;;;;;20.83;100.00;99931.41;5050312;28;19987;-57
2023/08/03 11:01:54;;;;;;;;;;;;;;;20.76;100.00;99935.09;5049789;27;20403;-56
2023/08/03 11:04:23;;;;;;;;;;;;;;;20.65;100.00;99942.38;5047252;28;20355;-56
2023/08/03 11:06:49;;;;;;;;;;;;;;;20.57;100.00;99949.56;5051177;27;20434;-58
2023/08/03 11:09:15;;;;;;;;;;;;;;;20.42;100.00;99955.16;5052113;28;19920;-58
2023/08/03 11:11:44;;;;;;;;;;;;;;;20.27;100.00;99966.88;5050147;28;19924;-58
2023/08/03 11:14:09;;;;;;;;;;;;;;;20.19;100.00;99967.06;5051653;27;20074;-57
2023/08/03 11:16:34;;;;;;;;;;;;;;;20.14;100.00;99970.66;5049751;28;20465;-57
2023/08/03 11:19:00;;;;;;;;;;;;;;;20.08;100.00;99976.91;5052446;28;19968;-57
2023/08/03 11:21:25;;;;;;;;;;;;;;;19.98;100.00;99988.47;5060215;28;20291;-57
2023/08/03 11:23:50;;;;;;;;;;;;;;;19.95;100.00;99976.34;5039862;28;19936;-56
2023/08/03 11:26:16;;;;;;;;;;;;;;;19.66;100.00;99991.84;5059854;27;19921;-55
2023/08/03 11:28:42;;;;;;;;;;;;;;;19.49;100.00;99992.19;5053466;28;19928;-55
2023/08/03 11:31:20;;;;;;;;;;;;;;;19.38;100.00;100002.00;5050126;27;19916;-55
2023/08/03 11:33:53;;;;;;;;;;;;;;;19.21;100.00;100004.97;5054017;28;20468;-54
2023/08/03 11:36:19;;;;;;;;;;;;;;;19.00;100.00;100022.75;5049192;28;19928;-55
2023/08/03 11:38:44;;;;;;;;;;;;;;;18.69;100.00;100032.91;5050364;27;19920;-56
2023/08/03 11:41:13;;;;;;;;;;;;;;;18.22;100.00;100031.94;5048958;28;20332;-53
2023/08/03 11:43:38;;;;;;;;;;;;;;;17.75;100.00;100037.88;5051021;28;19942;-53
2023/08/03 11:46:04;;;;;;;;;;;;;;;17.45;100.00;100038.28;5045556;27;20633;-59
2023/08/03 11:48:32;;;;;;;;;;;;;;;17.21;100.00;100052.44;5053083;28;19932;-60
2023/08/03 11:50:58;;;;;;;;;;;;;;;17.06;100.00;100054.34;5049822;28;20243;-59
2023/08/03 11:53:24;;;;;;;;;;;;;;;16.89;100.00;100053.66;5042921;27;19925;-58
2023/08/03 11:55:49;;;;;;;;;;;;;;;16.82;100.00;100077.97;5035290;28;20039;-58
2023/08/03 11:58:15;;;;;;;;;;;;;;;16.75;100.00;100074.56;5046984;28;20622;-57
2023/08/03 12:00:45;;;;;;;;;;;;;;;16.72;100.00;100086.72;5033789;28;20550;-58
2023/08/03 12:03:17;;;;;;;;;;;;;;;16.71;100.00;100085.00;5035723;28;20168;-57
2023/08/03 12:05:49;;;;;;;;;;;;;;;16.70;100.00;100089.34;5035736;28;19924;-57
2023/08/03 12:08:21;;;;;;;;;;;;;;;16.71;100.00;100105.75;5033782;27;19925;-56
2023/08/03 12:11:00;;;;;;;;;;;;;;;16.70;100.00;100109.22;5053401;27;19969;-57
2023/08/03 12:13:25;;;;;;;;;;;;;;;16.76;100.00;100114.38;5051375;28;20008;-57
2023/08/03 12:15:51;;;;;;;;;;;;;;;16.79;100.00;100127.31;5051503;28;19929;-51
2023/08/03 12:18:16;;;;;;;;;;;;;;;16.84;100.00;100125.53;5054431;28;19921;-55
2023/08/03 12:20:41;;;;;;;;;;;;;;;16.81;100.00;100138.56;5054088;28;19928;-57
2023/08/03 12:23:06;;;;;;;;;;;;;;;16.75;100.00;100141.22;5054473;27;19927;-53
2023/08/03 12:25:32;;;;;;;;;;;;;;;16.68;100.00;100147.28;5054248;28;19944;-52
2023/08/03 12:27:57;;;;;;;;;;;;;;;16.56;100.00;100159.50;5056552;28;20409;-52
2023/08/03 12:30:22;;;;;;;;;;;;;;;16.48;100.00;100176.84;5056355;28;19955;-51
2023/08/03 12:32:47;;;;;;;;;;;;;;;16.39;100.00;100176.94;5058305;28;19921;-53